sensor_id;sensor_type;location;lat;lon;timestamp;P1;durP1;ratioP1;P2;durP2;ratioP2
7013;SDS011;3547;50.774;12.918;2023-06-14T01:21:19;3.77;;;2.23;;
7013;SDS011;3547;50.774;12.918;2023-06-14T01:58:54;5.17;;;2.43;;
7013;SDS011;3547;50.774;12.918;2023-06-14T02:01:21;3.17;;;2.50;;
7013;SDS011;3547;50.774;12.918;2023-06-14T02:03:49;3.03;;;2.70;;
7013;SDS011;3547;50.774;12.918;2023-06-14T02:06:17;2.47;;;2.23;;
7013;SDS011;3547;50.774;12.918;2023-06-14T02:12:15;2.97;;;2.37;;
7013;SDS011;3547;50.774;12.918;2023-06-14T02:19:01;2.50;;;2.13;;
7013;SDS011;3547;50.774;12.918;2023-06-14T02:21:38;3.87;;;2.23;;
7013;SDS011;3547;50.774;12.918;2023-06-14T02:24:08;3.23;;;2.60;;
7013;SDS011;3547;50.774;12.918;2023-06-14T02:26:34;5.90;;;2.80;;
7013;SDS011;3547;50.774;12.918;2023-06-14T02:29:04;2.77;;;2.43;;
7013;SDS011;3547;50.774;12.918;2023-06-14T02:31:31;4.03;;;2.20;;
7013;SDS011;3547;50.774;12.918;2023-06-14T02:34:08;3.20;;;2.47;;
7013;SDS011;3547;50.774;12.918;2023-06-14T02:42:41;5.53;;;2.40;;
7013;SDS011;3547;50.774;12.918;2023-06-14T02:47:54;2.83;;;2.50;;
7013;SDS011;3547;50.774;12.918;2023-06-14T02:50:22;2.57;;;2.20;;
7013;SDS011;3547;50.774;12.918;2023-06-14T02:52:49;2.60;;;2.40;;
7013;SDS011;3547;50.774;12.918;2023-06-14T02:55:16;2.87;;;2.47;;
7013;SDS011;3547;50.774;12.918;2023-06-14T03:09:17;2.63;;;2.43;;
7013;SDS011;3547;50.774;12.918;2023-06-14T03:11:44;2.30;;;2.10;;
7013;SDS011;3547;50.774;12.918;2023-06-14T03:14:12;2.50;;;2.30;;
7013;SDS011;3547;50.774;12.918;2023-06-14T03:16:47;3.10;;;2.27;;
7013;SDS011;3547;50.774;12.918;2023-06-14T03:19:15;2.97;;;2.40;;
7013;SDS011;3547;50.774;12.918;2023-06-14T03:21:48;2.80;;;2.30;;
7013;SDS011;3547;50.774;12.918;2023-06-14T03:25:14;2.33;;;2.13;;
7013;SDS011;3547;50.774;12.918;2023-06-14T03:27:45;2.40;;;2.20;;
7013;SDS011;3547;50.774;12.918;2023-06-14T03:38:40;1.97;;;1.67;;
7013;SDS011;3547;50.774;12.918;2023-06-14T03:41:07;3.60;;;2.27;;
7013;SDS011;3547;50.774;12.918;2023-06-14T03:43:36;2.67;;;2.10;;
7013;SDS011;3547;50.774;12.918;2023-06-14T03:46:06;3.90;;;2.53;;
7013;SDS011;3547;50.774;12.918;2023-06-14T03:48:32;3.20;;;2.30;;
7013;SDS011;3547;50.774;12.918;2023-06-14T03:50:58;3.47;;;2.40;;
7013;SDS011;3547;50.774;12.918;2023-06-14T03:53:25;3.77;;;2.80;;
7013;SDS011;3547;50.774;12.918;2023-06-14T03:55:53;3.33;;;2.70;;
7013;SDS011;3547;50.774;12.918;2023-06-14T03:58:20;4.00;;;2.70;;
7013;SDS011;3547;50.774;12.918;2023-06-14T04:00:46;3.50;;;2.73;;
7013;SDS011;3547;50.774;12.918;2023-06-14T04:03:13;3.47;;;2.70;;
7013;SDS011;3547;50.774;12.918;2023-06-14T04:05:41;7.30;;;2.40;;
7013;SDS011;3547;50.774;12.918;2023-06-14T04:08:08;2.93;;;2.63;;
7013;SDS011;3547;50.774;12.918;2023-06-14T04:10:35;3.50;;;2.80;;
7013;SDS011;3547;50.774;12.918;2023-06-14T04:13:01;3.33;;;2.53;;
7013;SDS011;3547;50.774;12.918;2023-06-14T04:15:27;2.50;;;2.30;;
7013;SDS011;3547;50.774;12.918;2023-06-14T04:17:53;3.77;;;2.80;;
7013;SDS011;3547;50.774;12.918;2023-06-14T04:20:22;4.03;;;2.60;;
7013;SDS011;3547;50.774;12.918;2023-06-14T04:22:52;2.87;;;2.57;;
7013;SDS011;3547;50.774;12.918;2023-06-14T04:25:18;3.83;;;3.07;;
7013;SDS011;3547;50.774;12.918;2023-06-14T04:27:46;3.00;;;2.57;;
7013;SDS011;3547;50.774;12.918;2023-06-14T04:30:12;2.87;;;2.40;;
7013;SDS011;3547;50.774;12.918;2023-06-14T04:32:41;3.57;;;3.10;;
7013;SDS011;3547;50.774;12.918;2023-06-14T04:35:09;3.07;;;2.77;;
7013;SDS011;3547;50.774;12.918;2023-06-14T04:41:26;3.60;;;2.20;;
7013;SDS011;3547;50.774;12.918;2023-06-14T04:43:57;3.03;;;2.70;;
7013;SDS011;3547;50.774;12.918;2023-06-14T04:46:28;2.53;;;2.33;;
7013;SDS011;3547;50.774;12.918;2023-06-14T04:48:55;2.80;;;2.30;;
7013;SDS011;3547;50.774;12.918;2023-06-14T04:51:25;3.00;;;2.70;;
7013;SDS011;3547;50.774;12.918;2023-06-14T04:53:55;5.90;;;2.57;;
7013;SDS011;3547;50.774;12.918;2023-06-14T04:56:26;3.00;;;2.70;;
7013;SDS011;3547;50.774;12.918;2023-06-14T04:59:00;2.63;;;2.10;;
7013;SDS011;3547;50.774;12.918;2023-06-14T05:01:34;3.03;;;2.73;;
7013;SDS011;3547;50.774;12.918;2023-06-14T05:04:01;3.93;;;2.67;;
7013;SDS011;3547;50.774;12.918;2023-06-14T05:06:27;5.63;;;2.60;;
7013;SDS011;3547;50.774;12.918;2023-06-14T05:08:54;3.00;;;2.70;;
7013;SDS011;3547;50.774;12.918;2023-06-14T05:11:20;2.90;;;2.50;;
7013;SDS011;3547;50.774;12.918;2023-06-14T05:13:49;3.00;;;2.17;;
7013;SDS011;3547;50.774;12.918;2023-06-14T05:16:16;2.73;;;2.53;;
7013;SDS011;3547;50.774;12.918;2023-06-14T05:18:45;4.70;;;2.50;;
7013;SDS011;3547;50.774;12.918;2023-06-14T05:37:05;3.20;;;2.40;;
7013;SDS011;3547;50.774;12.918;2023-06-14T05:39:31;3.30;;;2.47;;
7013;SDS011;3547;50.774;12.918;2023-06-14T05:41:57;4.03;;;2.53;;
7013;SDS011;3547;50.774;12.918;2023-06-14T05:44:23;2.77;;;2.30;;
7013;SDS011;3547;50.774;12.918;2023-06-14T05:46:50;6.30;;;2.90;;
7013;SDS011;3547;50.774;12.918;2023-06-14T05:49:16;2.80;;;2.60;;
7013;SDS011;3547;50.774;12.918;2023-06-14T05:51:42;3.87;;;2.60;;
7013;SDS011;3547;50.774;12.918;2023-06-14T05:54:08;2.70;;;2.50;;
7013;SDS011;3547;50.774;12.918;2023-06-14T05:56:35;4.27;;;2.17;;
7013;SDS011;3547;50.774;12.918;2023-06-14T05:59:01;5.10;;;2.73;;
7013;SDS011;3547;50.774;12.918;2023-06-14T06:01:27;4.67;;;2.80;;
7013;SDS011;3547;50.774;12.918;2023-06-14T06:03:54;3.03;;;2.70;;
7013;SDS011;3547;50.774;12.918;2023-06-14T06:06:43;3.20;;;2.67;;
7013;SDS011;3547;50.774;12.918;2023-06-14T06:09:10;2.93;;;2.43;;
7013;SDS011;3547;50.774;12.918;2023-06-14T06:11:36;3.13;;;2.53;;
7013;SDS011;3547;50.774;12.918;2023-06-14T06:14:03;2.50;;;2.30;;
7013;SDS011;3547;50.774;12.918;2023-06-14T06:16:29;2.70;;;2.17;;
7013;SDS011;3547;50.774;12.918;2023-06-14T06:18:55;4.23;;;2.17;;
7013;SDS011;3547;50.774;12.918;2023-06-14T06:21:21;2.77;;;2.40;;
7013;SDS011;3547;50.774;12.918;2023-06-14T06:23:47;2.23;;;2.03;;
7013;SDS011;3547;50.774;12.918;2023-06-14T06:26:13;3.57;;;2.60;;
7013;SDS011;3547;50.774;12.918;2023-06-14T06:28:40;3.00;;;2.47;;
7013;SDS011;3547;50.774;12.918;2023-06-14T06:31:06;3.10;;;2.77;;
7013;SDS011;3547;50.774;12.918;2023-06-14T06:33:32;2.20;;;2.00;;
7013;SDS011;3547;50.774;12.918;2023-06-14T06:35:59;3.57;;;2.60;;
7013;SDS011;3547;50.774;12.918;2023-06-14T06:38:25;2.73;;;2.40;;
7013;SDS011;3547;50.774;12.918;2023-06-14T06:40:51;4.00;;;2.67;;
7013;SDS011;3547;50.774;12.918;2023-06-14T06:43:19;2.60;;;2.27;;
7013;SDS011;3547;50.774;12.918;2023-06-14T06:45:46;3.23;;;2.20;;
7013;SDS011;3547;50.774;12.918;2023-06-14T06:48:12;3.73;;;2.40;;
7013;SDS011;3547;50.774;12.918;2023-06-14T06:50:38;2.75;;;2.25;;
7013;SDS011;3547;50.774;12.918;2023-06-14T06:53:05;3.43;;;2.43;;
7013;SDS011;3547;50.774;12.918;2023-06-14T06:55:32;1.98;;;1.77;;
7013;SDS011;3547;50.774;12.918;2023-06-14T06:57:58;2.40;;;2.13;;
7013;SDS011;3547;50.774;12.918;2023-06-14T07:00:25;3.23;;;2.27;;
7013;SDS011;3547;50.774;12.918;2023-06-14T07:02:52;3.67;;;1.93;;
7013;SDS011;3547;50.774;12.918;2023-06-14T07:05:22;1.95;;;1.83;;
7013;SDS011;3547;50.774;12.918;2023-06-14T07:07:51;2.03;;;1.90;;
7013;SDS011;3547;50.774;12.918;2023-06-14T07:10:17;2.53;;;2.33;;
7013;SDS011;3547;50.774;12.918;2023-06-14T07:12:44;3.03;;;2.35;;
7013;SDS011;3547;50.774;12.918;2023-06-14T07:15:10;2.60;;;2.40;;
7013;SDS011;3547;50.774;12.918;2023-06-14T07:17:37;2.85;;;2.60;;
7013;SDS011;3547;50.774;12.918;2023-06-14T07:20:04;3.50;;;1.98;;
7013;SDS011;3547;50.774;12.918;2023-06-14T07:22:33;2.72;;;2.53;;
7013;SDS011;3547;50.774;12.918;2023-06-14T07:25:00;3.47;;;2.40;;
7013;SDS011;3547;50.774;12.918;2023-06-14T07:27:28;4.65;;;2.33;;
7013;SDS011;3547;50.774;12.918;2023-06-14T07:29:54;2.88;;;2.58;;
7013;SDS011;3547;50.774;12.918;2023-06-14T07:32:20;2.95;;;2.30;;
7013;SDS011;3547;50.774;12.918;2023-06-14T07:34:47;3.75;;;2.22;;
7013;SDS011;3547;50.774;12.918;2023-06-14T07:37:13;3.00;;;2.45;;
7013;SDS011;3547;50.774;12.918;2023-06-14T07:39:39;2.63;;;2.40;;
7013;SDS011;3547;50.774;12.918;2023-06-14T07:42:06;2.58;;;2.38;;
7013;SDS011;3547;50.774;12.918;2023-06-14T07:44:33;3.15;;;2.58;;
7013;SDS011;3547;50.774;12.918;2023-06-14T07:46:59;2.25;;;2.00;;
7013;SDS011;3547;50.774;12.918;2023-06-14T07:49:25;5.28;;;2.38;;
7013;SDS011;3547;50.774;12.918;2023-06-14T07:51:53;2.25;;;2.05;;
7013;SDS011;3547;50.774;12.918;2023-06-14T07:54:20;2.30;;;1.83;;
7013;SDS011;3547;50.774;12.918;2023-06-14T07:56:50;2.78;;;2.47;;
7013;SDS011;3547;50.774;12.918;2023-06-14T07:59:16;3.65;;;2.10;;
7013;SDS011;3547;50.774;12.918;2023-06-14T08:01:43;2.63;;;2.30;;
7013;SDS011;3547;50.774;12.918;2023-06-14T08:04:14;2.97;;;2.42;;
7013;SDS011;3547;50.774;12.918;2023-06-14T08:06:41;3.33;;;2.42;;
7013;SDS011;3547;50.774;12.918;2023-06-14T08:09:10;3.40;;;2.38;;
7013;SDS011;3547;50.774;12.918;2023-06-14T08:11:36;2.97;;;2.05;;
7013;SDS011;3547;50.774;12.918;2023-06-14T08:14:03;2.83;;;2.53;;
7013;SDS011;3547;50.774;12.918;2023-06-14T08:16:29;2.70;;;2.50;;
7013;SDS011;3547;50.774;12.918;2023-06-14T08:18:56;3.38;;;2.40;;
7013;SDS011;3547;50.774;12.918;2023-06-14T08:21:22;2.67;;;2.38;;
7013;SDS011;3547;50.774;12.918;2023-06-14T08:23:49;4.25;;;3.03;;
7013;SDS011;3547;50.774;12.918;2023-06-14T08:26:20;3.17;;;2.50;;
7013;SDS011;3547;50.774;12.918;2023-06-14T08:28:47;3.95;;;2.97;;
7013;SDS011;3547;50.774;12.918;2023-06-14T08:31:14;2.83;;;2.08;;
7013;SDS011;3547;50.774;12.918;2023-06-14T08:33:40;3.55;;;2.30;;
7013;SDS011;3547;50.774;12.918;2023-06-14T08:36:11;2.25;;;2.08;;
7013;SDS011;3547;50.774;12.918;2023-06-14T08:38:38;2.20;;;2.00;;
7013;SDS011;3547;50.774;12.918;2023-06-14T08:41:05;2.40;;;2.17;;
7013;SDS011;3547;50.774;12.918;2023-06-14T08:43:32;2.30;;;2.10;;
7013;SDS011;3547;50.774;12.918;2023-06-14T08:46:00;3.25;;;1.90;;
7013;SDS011;3547;50.774;12.918;2023-06-14T08:48:28;2.28;;;2.08;;
7013;SDS011;3547;50.774;12.918;2023-06-14T08:51:00;3.45;;;1.95;;
7013;SDS011;3547;50.774;12.918;2023-06-14T08:53:32;2.00;;;1.80;;
7013;SDS011;3547;50.774;12.918;2023-06-14T08:56:02;2.60;;;2.30;;
7013;SDS011;3547;50.774;12.918;2023-06-14T08:58:30;3.22;;;2.47;;
7013;SDS011;3547;50.774;12.918;2023-06-14T09:01:00;6.20;;;2.40;;
7013;SDS011;3547;50.774;12.918;2023-06-14T09:03:27;2.35;;;2.10;;
7013;SDS011;3547;50.774;12.918;2023-06-14T09:05:57;2.50;;;1.98;;
7013;SDS011;3547;50.774;12.918;2023-06-14T09:08:26;2.30;;;2.10;;
7013;SDS011;3547;50.774;12.918;2023-06-14T09:10:56;2.28;;;1.85;;
7013;SDS011;3547;50.774;12.918;2023-06-14T09:13:23;4.72;;;2.55;;
7013;SDS011;3547;50.774;12.918;2023-06-14T09:15:52;2.08;;;1.90;;
7013;SDS011;3547;50.774;12.918;2023-06-14T09:18:19;7.78;;;2.25;;
7013;SDS011;3547;50.774;12.918;2023-06-14T09:20:46;2.25;;;2.05;;
7013;SDS011;3547;50.774;12.918;2023-06-14T09:23:14;3.53;;;1.67;;
7013;SDS011;3547;50.774;12.918;2023-06-14T09:25:47;2.38;;;2.13;;
7013;SDS011;3547;50.774;12.918;2023-06-14T09:28:13;2.97;;;2.10;;
7013;SDS011;3547;50.774;12.918;2023-06-14T09:30:40;2.13;;;1.83;;
7013;SDS011;3547;50.774;12.918;2023-06-14T09:33:06;4.38;;;2.10;;
7013;SDS011;3547;50.774;12.918;2023-06-14T09:35:33;2.30;;;2.10;;
7013;SDS011;3547;50.774;12.918;2023-06-14T09:38:00;2.40;;;2.20;;
7013;SDS011;3547;50.774;12.918;2023-06-14T09:40:27;3.65;;;1.92;;
7013;SDS011;3547;50.774;12.918;2023-06-14T09:42:53;2.17;;;1.98;;
7013;SDS011;3547;50.774;12.918;2023-06-14T09:45:23;2.20;;;2.00;;
7013;SDS011;3547;50.774;12.918;2023-06-14T09:47:50;2.83;;;2.17;;
7013;SDS011;3547;50.774;12.918;2023-06-14T09:50:18;3.50;;;1.63;;
7013;SDS011;3547;50.774;12.918;2023-06-14T09:52:44;3.88;;;1.95;;
7013;SDS011;3547;50.774;12.918;2023-06-14T09:55:15;2.97;;;2.00;;
7013;SDS011;3547;50.774;12.918;2023-06-14T09:57:42;4.28;;;2.17;;
7013;SDS011;3547;50.774;12.918;2023-06-14T10:00:11;3.67;;;2.08;;
7013;SDS011;3547;50.774;12.918;2023-06-14T10:02:40;2.35;;;2.10;;
7013;SDS011;3547;50.774;12.918;2023-06-14T10:05:14;2.97;;;2.40;;
7013;SDS011;3547;50.774;12.918;2023-06-14T10:07:53;2.15;;;1.95;;
7013;SDS011;3547;50.774;12.918;2023-06-14T10:10:43;4.93;;;2.28;;
7013;SDS011;3547;50.774;12.918;2023-06-14T10:13:10;2.30;;;2.10;;
7013;SDS011;3547;50.774;12.918;2023-06-14T10:15:44;2.63;;;2.42;;
7013;SDS011;3547;50.774;12.918;2023-06-14T10:18:42;4.15;;;2.45;;
7013;SDS011;3547;50.774;12.918;2023-06-14T10:21:38;3.53;;;2.45;;
7013;SDS011;3547;50.774;12.918;2023-06-14T10:24:12;2.80;;;2.10;;
7013;SDS011;3547;50.774;12.918;2023-06-14T10:26:51;2.40;;;2.00;;
7013;SDS011;3547;50.774;12.918;2023-06-14T10:29:20;2.17;;;1.98;;
7013;SDS011;3547;50.774;12.918;2023-06-14T10:31:47;2.92;;;2.38;;
7013;SDS011;3547;50.774;12.918;2023-06-14T10:34:25;4.30;;;2.10;;
7013;SDS011;3547;50.774;12.918;2023-06-14T10:39:48;3.28;;;2.38;;
7013;SDS011;3547;50.774;12.918;2023-06-14T10:42:15;2.90;;;1.98;;
7013;SDS011;3547;50.774;12.918;2023-06-14T10:44:42;2.38;;;2.10;;
7013;SDS011;3547;50.774;12.918;2023-06-14T10:49:54;5.63;;;2.25;;
7013;SDS011;3547;50.774;12.918;2023-06-14T10:52:34;2.45;;;2.25;;
7013;SDS011;3547;50.774;12.918;2023-06-14T10:57:37;2.20;;;2.00;;
7013;SDS011;3547;50.774;12.918;2023-06-14T11:00:09;2.40;;;2.17;;
7013;SDS011;3547;50.774;12.918;2023-06-14T11:05:20;2.35;;;2.15;;
7013;SDS011;3547;50.774;12.918;2023-06-14T11:10:48;2.45;;;2.25;;
7013;SDS011;3547;50.774;12.918;2023-06-14T11:13:16;2.38;;;2.17;;
7013;SDS011;3547;50.774;12.918;2023-06-14T11:15:47;2.72;;;2.33;;
7013;SDS011;3547;50.774;12.918;2023-06-14T11:21:39;6.28;;;2.20;;
7013;SDS011;3547;50.774;12.918;2023-06-14T11:24:09;3.17;;;2.13;;
7013;SDS011;3547;50.774;12.918;2023-06-14T11:26:38;2.00;;;1.83;;
7013;SDS011;3547;50.774;12.918;2023-06-14T11:29:05;2.03;;;1.83;;
7013;SDS011;3547;50.774;12.918;2023-06-14T11:31:33;1.90;;;1.80;;
7013;SDS011;3547;50.774;12.918;2023-06-14T11:34:02;2.78;;;2.20;;
7013;SDS011;3547;50.774;12.918;2023-06-14T11:36:31;2.03;;;1.83;;
7013;SDS011;3547;50.774;12.918;2023-06-14T11:39:03;2.53;;;2.08;;
7013;SDS011;3547;50.774;12.918;2023-06-14T11:41:40;1.70;;;1.60;;
7013;SDS011;3547;50.774;12.918;2023-06-14T11:44:12;2.22;;;1.90;;
7013;SDS011;3547;50.774;12.918;2023-06-14T11:46:38;1.90;;;1.60;;
7013;SDS011;3547;50.774;12.918;2023-06-14T11:49:06;1.92;;;1.83;;
7013;SDS011;3547;50.774;12.918;2023-06-14T11:51:34;1.65;;;1.52;;
7013;SDS011;3547;50.774;12.918;2023-06-14T11:54:05;1.60;;;1.50;;
7013;SDS011;3547;50.774;12.918;2023-06-14T11:59:55;1.85;;;1.60;;
7013;SDS011;3547;50.774;12.918;2023-06-14T12:02:26;1.63;;;1.52;;
7013;SDS011;3547;50.774;12.918;2023-06-14T12:05:03;1.92;;;1.73;;
7013;SDS011;3547;50.774;12.918;2023-06-14T12:07:38;1.60;;;1.50;;
7013;SDS011;3547;50.774;12.918;2023-06-14T12:10:06;1.60;;;1.50;;
7013;SDS011;3547;50.774;12.918;2023-06-14T12:12:37;2.38;;;1.73;;
7013;SDS011;3547;50.774;12.918;2023-06-14T12:15:09;2.30;;;2.10;;
7013;SDS011;3547;50.774;12.918;2023-06-14T12:17:39;1.73;;;1.50;;
7013;SDS011;3547;50.774;12.918;2023-06-14T12:20:16;5.82;;;1.58;;
7013;SDS011;3547;50.774;12.918;2023-06-14T12:22:52;2.90;;;2.15;;
7013;SDS011;3547;50.774;12.918;2023-06-14T12:25:28;1.65;;;1.55;;
7013;SDS011;3547;50.774;12.918;2023-06-14T12:28:08;2.28;;;1.70;;
7013;SDS011;3547;50.774;12.918;2023-06-14T12:30:35;1.60;;;1.50;;
7013;SDS011;3547;50.774;12.918;2023-06-14T12:33:03;1.73;;;1.63;;
7013;SDS011;3547;50.774;12.918;2023-06-14T12:35:31;1.58;;;1.48;;
7013;SDS011;3547;50.774;12.918;2023-06-14T14:21:45;2.40;;;1.70;;
7013;SDS011;3547;50.774;12.918;2023-06-14T14:24:12;2.35;;;1.95;;
7013;SDS011;3547;50.774;12.918;2023-06-14T14:26:42;2.00;;;1.80;;
7013;SDS011;3547;50.774;12.918;2023-06-14T14:29:08;2.22;;;1.90;;
7013;SDS011;3547;50.774;12.918;2023-06-14T14:31:37;2.55;;;2.03;;
7013;SDS011;3547;50.774;12.918;2023-06-14T14:34:04;2.20;;;2.00;;
7013;SDS011;3547;50.774;12.918;2023-06-14T14:36:31;3.10;;;2.15;;
7013;SDS011;3547;50.774;12.918;2023-06-14T14:38:59;2.30;;;2.05;;
7013;SDS011;3547;50.774;12.918;2023-06-14T14:41:27;2.90;;;2.60;;
7013;SDS011;3547;50.774;12.918;2023-06-14T14:43:54;2.25;;;2.05;;
7013;SDS011;3547;50.774;12.918;2023-06-14T14:46:20;2.25;;;2.05;;
7013;SDS011;3547;50.774;12.918;2023-06-14T14:48:47;3.20;;;2.28;;
7013;SDS011;3547;50.774;12.918;2023-06-14T15:12:01;2.28;;;2.08;;
7013;SDS011;3547;50.774;12.918;2023-06-14T15:57:10;2.33;;;2.10;;
7013;SDS011;3547;50.774;12.918;2023-06-14T16:08:13;1.92;;;1.83;;
7013;SDS011;3547;50.774;12.918;2023-06-14T16:17:09;2.25;;;2.13;;
7013;SDS011;3547;50.774;12.918;2023-06-14T16:19:48;2.55;;;2.35;;
7013;SDS011;3547;50.774;12.918;2023-06-14T16:22:16;2.83;;;2.33;;
7013;SDS011;3547;50.774;12.918;2023-06-14T16:24:43;2.47;;;2.28;;
7013;SDS011;3547;50.774;12.918;2023-06-14T17:24:02;2.65;;;2.45;;
7013;SDS011;3547;50.774;12.918;2023-06-14T17:30:34;2.47;;;2.28;;
7013;SDS011;3547;50.774;12.918;2023-06-14T17:33:09;2.78;;;2.58;;
7013;SDS011;3547;50.774;12.918;2023-06-14T18:42:59;2.10;;;1.90;;
7013;SDS011;3547;50.774;12.918;2023-06-14T21:12:47;2.83;;;2.60;;
7013;SDS011;3547;50.774;12.918;2023-06-14T21:15:14;3.47;;;2.50;;
7013;SDS011;3547;50.774;12.918;2023-06-14T21:17:42;2.93;;;2.60;;
7013;SDS011;3547;50.774;12.918;2023-06-14T21:20:14;4.17;;;2.77;;
7013;SDS011;3547;50.774;12.918;2023-06-14T21:22:46;3.13;;;2.30;;
7013;SDS011;3547;50.774;12.918;2023-06-14T21:25:16;2.83;;;2.63;;
7013;SDS011;3547;50.774;12.918;2023-06-14T21:27:43;2.50;;;2.30;;
7013;SDS011;3547;50.774;12.918;2023-06-14T21:30:10;4.97;;;2.60;;
7013;SDS011;3547;50.774;12.918;2023-06-14T21:32:42;3.20;;;2.33;;
7013;SDS011;3547;50.774;12.918;2023-06-14T21:35:12;2.97;;;2.50;;
7013;SDS011;3547;50.774;12.918;2023-06-14T21:37:43;2.70;;;2.50;;
7013;SDS011;3547;50.774;12.918;2023-06-14T21:40:12;2.60;;;2.40;;
7013;SDS011;3547;50.774;12.918;2023-06-14T21:42:40;4.00;;;2.60;;
7013;SDS011;3547;50.774;12.918;2023-06-14T21:45:18;3.50;;;2.70;;
7013;SDS011;3547;50.774;12.918;2023-06-14T21:47:49;3.10;;;2.63;;
7013;SDS011;3547;50.774;12.918;2023-06-14T21:50:20;3.37;;;2.10;;
7013;SDS011;3547;50.774;12.918;2023-06-14T21:52:49;2.63;;;2.40;;
7013;SDS011;3547;50.774;12.918;2023-06-14T21:55:16;3.30;;;2.23;;
7013;SDS011;3547;50.774;12.918;2023-06-14T22:01:11;3.00;;;2.47;;
7013;SDS011;3547;50.774;12.918;2023-06-14T22:03:38;2.80;;;2.57;;
7013;SDS011;3547;50.774;12.918;2023-06-14T22:06:05;3.47;;;2.40;;
7013;SDS011;3547;50.774;12.918;2023-06-14T22:08:32;3.40;;;2.60;;
7013;SDS011;3547;50.774;12.918;2023-06-14T22:10:59;8.67;;;3.20;;
7013;SDS011;3547;50.774;12.918;2023-06-14T22:13:34;2.70;;;2.50;;
7013;SDS011;3547;50.774;12.918;2023-06-14T22:16:09;7.47;;;2.70;;
7013;SDS011;3547;50.774;12.918;2023-06-14T22:18:38;3.70;;;2.73;;
7013;SDS011;3547;50.774;12.918;2023-06-14T22:21:06;3.80;;;2.77;;
7013;SDS011;3547;50.774;12.918;2023-06-14T22:23:34;4.10;;;2.70;;
7013;SDS011;3547;50.774;12.918;2023-06-14T22:26:04;2.90;;;2.63;;
7013;SDS011;3547;50.774;12.918;2023-06-14T22:28:33;3.50;;;2.40;;
7013;SDS011;3547;50.774;12.918;2023-06-14T22:31:10;3.33;;;2.40;;
7013;SDS011;3547;50.774;12.918;2023-06-14T22:33:40;3.10;;;2.67;;
7013;SDS011;3547;50.774;12.918;2023-06-14T22:41:22;2.77;;;2.50;;
7013;SDS011;3547;50.774;12.918;2023-06-14T22:43:59;3.50;;;2.73;;
7013;SDS011;3547;50.774;12.918;2023-06-14T22:46:30;2.90;;;2.57;;
7013;SDS011;3547;50.774;12.918;2023-06-14T22:48:59;2.53;;;2.33;;
7013;SDS011;3547;50.774;12.918;2023-06-14T22:51:27;3.17;;;2.73;;
7013;SDS011;3547;50.774;12.918;2023-06-14T22:53:56;3.13;;;2.70;;
7013;SDS011;3547;50.774;12.918;2023-06-14T22:56:22;2.87;;;2.40;;
7013;SDS011;3547;50.774;12.918;2023-06-14T22:58:49;3.57;;;2.73;;
7013;SDS011;3547;50.774;12.918;2023-06-14T23:01:18;2.60;;;2.10;;
7013;SDS011;3547;50.774;12.918;2023-06-14T23:03:52;2.23;;;2.03;;
7013;SDS011;3547;50.774;12.918;2023-06-14T23:06:22;3.30;;;2.80;;
7013;SDS011;3547;50.774;12.918;2023-06-14T23:09:03;2.80;;;2.47;;
7013;SDS011;3547;50.774;12.918;2023-06-14T23:11:32;3.80;;;2.80;;
7013;SDS011;3547;50.774;12.918;2023-06-14T23:14:01;4.03;;;3.03;;
7013;SDS011;3547;50.774;12.918;2023-06-14T23:16:31;4.20;;;3.00;;
7013;SDS011;3547;50.774;12.918;2023-06-14T23:18:59;4.50;;;2.53;;
7013;SDS011;3547;50.774;12.918;2023-06-14T23:21:29;2.60;;;2.30;;
7013;SDS011;3547;50.774;12.918;2023-06-14T23:23:55;3.13;;;2.83;;
7013;SDS011;3547;50.774;12.918;2023-06-14T23:26:28;4.27;;;2.90;;
7013;SDS011;3547;50.774;12.918;2023-06-14T23:28:55;3.07;;;2.63;;
7013;SDS011;3547;50.774;12.918;2023-06-14T23:31:22;2.60;;;2.40;;
7013;SDS011;3547;50.774;12.918;2023-06-14T23:33:49;3.17;;;2.23;;
7013;SDS011;3547;50.774;12.918;2023-06-14T23:36:17;3.43;;;2.93;;
7013;SDS011;3547;50.774;12.918;2023-06-14T23:38:45;4.00;;;2.80;;
7013;SDS011;3547;50.774;12.918;2023-06-14T23:41:13;3.57;;;2.77;;
7013;SDS011;3547;50.774;12.918;2023-06-14T23:43:44;3.70;;;2.80;;
7013;SDS011;3547;50.774;12.918;2023-06-14T23:46:15;3.17;;;2.83;;
7013;SDS011;3547;50.774;12.918;2023-06-14T23:48:45;4.47;;;2.83;;
7013;SDS011;3547;50.774;12.918;2023-06-14T23:51:13;3.57;;;2.70;;
7013;SDS011;3547;50.774;12.918;2023-06-14T23:53:42;3.10;;;2.80;;
7013;SDS011;3547;50.774;12.918;2023-06-14T23:56:13;2.90;;;2.40;;
7013;SDS011;3547;50.774;12.918;2023-06-14T23:58:50;4.07;;;2.43;;
